sensor_id;sensor_type;location;lat;lon;timestamp;pressure;altitude;pressure_sealevel;temperature;humidity
5883;BME280;2967;51.488;6.618;2023-07-31T00:02:29;100817.09;;;17.40;100.00
5883;BME280;2967;51.488;6.618;2023-07-31T00:07:32;100819.47;;;17.43;100.00
5883;BME280;2967;51.488;6.618;2023-07-31T00:12:37;100806.38;;;17.50;100.00
5883;BME280;2967;51.488;6.618;2023-07-31T00:17:40;100797.09;;;17.44;100.00
5883;BME280;2967;51.488;6.618;2023-07-31T00:22:43;100810.47;;;17.54;100.00
5883;BME280;2967;51.488;6.618;2023-07-31T00:27:47;100807.50;;;17.47;100.00
5883;BME280;2967;51.488;6.618;2023-07-31T00:32:49;100801.44;;;17.55;100.00
5883;BME280;2967;51.488;6.618;2023-07-31T00:37:52;100787.25;;;17.45;100.00
5883;BME280;2967;51.488;6.618;2023-07-31T00:42:56;100799.63;;;17.36;100.00
5883;BME280;2967;51.488;6.618;2023-07-31T00:48:02;100769.63;;;17.23;100.00
5883;BME280;2967;51.488;6.618;2023-07-31T00:53:05;100802.03;;;17.39;100.00
5883;BME280;2967;51.488;6.618;2023-07-31T00:58:09;100804.56;;;17.50;100.00
5883;BME280;2967;51.488;6.618;2023-07-31T01:03:13;100764.56;;;17.30;100.00
5883;BME280;2967;51.488;6.618;2023-07-31T01:08:21;100791.16;;;17.41;100.00
5883;BME280;2967;51.488;6.618;2023-07-31T01:13:30;100794.53;;;17.52;100.00
5883;BME280;2967;51.488;6.618;2023-07-31T01:18:33;100795.09;;;17.46;100.00
5883;BME280;2967;51.488;6.618;2023-07-31T01:23:51;100738.56;;;17.03;100.00
5883;BME280;2967;51.488;6.618;2023-07-31T01:29:01;100786.38;;;17.35;100.00
5883;BME280;2967;51.488;6.618;2023-07-31T01:34:09;100787.25;;;17.45;100.00
5883;BME280;2967;51.488;6.618;2023-07-31T01:39:14;100779.47;;;17.42;100.00
5883;BME280;2967;51.488;6.618;2023-07-31T01:44:19;100704.50;;;17.05;100.00
5883;BME280;2967;51.488;6.618;2023-07-31T01:49:22;100774.00;;;17.43;100.00
5883;BME280;2967;51.488;6.618;2023-07-31T01:54:25;100767.78;;;17.43;100.00
5883;BME280;2967;51.488;6.618;2023-07-31T01:59:29;100739.94;;;17.26;100.00
5883;BME280;2967;51.488;6.618;2023-07-31T02:04:32;100742.03;;;17.32;100.00
5883;BME280;2967;51.488;6.618;2023-07-31T02:09:37;100731.91;;;17.07;100.00
5883;BME280;2967;51.488;6.618;2023-07-31T02:14:42;100767.53;;;17.36;100.00
5883;BME280;2967;51.488;6.618;2023-07-31T02:19:45;100768.34;;;17.46;100.00
5883;BME280;2967;51.488;6.618;2023-07-31T02:24:48;100743.19;;;17.39;100.00
5883;BME280;2967;51.488;6.618;2023-07-31T02:29:52;100765.84;;;17.35;100.00
5883;BME280;2967;51.488;6.618;2023-07-31T02:34:55;100714.06;;;17.08;100.00
5883;BME280;2967;51.488;6.618;2023-07-31T02:39:59;100754.84;;;17.38;100.00
5883;BME280;2967;51.488;6.618;2023-07-31T02:45:05;100716.72;;;17.17;100.00
5883;BME280;2967;51.488;6.618;2023-07-31T02:50:09;100708.69;;;17.27;100.00
5883;BME280;2967;51.488;6.618;2023-07-31T02:55:12;100694.94;;;17.12;100.00
5883;BME280;2967;51.488;6.618;2023-07-31T03:00:16;100714.88;;;17.27;100.00
5883;BME280;2967;51.488;6.618;2023-07-31T03:05:19;100737.13;;;17.47;100.00
5883;BME280;2967;51.488;6.618;2023-07-31T03:10:22;100687.03;;;17.20;100.00
5883;BME280;2967;51.488;6.618;2023-07-31T03:15:27;100727.25;;;17.47;100.00
5883;BME280;2967;51.488;6.618;2023-07-31T03:20:29;100677.06;;;17.22;100.00
5883;BME280;2967;51.488;6.618;2023-07-31T03:25:32;100714.19;;;17.44;100.00
5883;BME280;2967;51.488;6.618;2023-07-31T03:30:36;100729.78;;;17.49;100.00
5883;BME280;2967;51.488;6.618;2023-07-31T03:35:39;100701.94;;;17.32;100.00
5883;BME280;2967;51.488;6.618;2023-07-31T03:40:42;100700.09;;;17.33;100.00
5883;BME280;2967;51.488;6.618;2023-07-31T03:45:46;100712.06;;;17.38;100.00
5883;BME280;2967;51.488;6.618;2023-07-31T03:50:49;100719.22;;;17.47;100.00
5883;BME280;2967;51.488;6.618;2023-07-31T03:55:52;100720.03;;;17.57;100.00
5883;BME280;2967;51.488;6.618;2023-07-31T04:00:56;100722.84;;;17.65;100.00
5883;BME280;2967;51.488;6.618;2023-07-31T04:05:59;100711.31;;;17.65;100.00
5883;BME280;2967;51.488;6.618;2023-07-31T04:11:02;100701.56;;;17.73;100.00
5883;BME280;2967;51.488;6.618;2023-07-31T04:16:06;100702.13;;;17.67;100.00
5883;BME280;2967;51.488;6.618;2023-07-31T04:21:09;100700.31;;;17.68;100.00
5883;BME280;2967;51.488;6.618;2023-07-31T04:26:11;100657.59;;;17.49;100.00
5883;BME280;2967;51.488;6.618;2023-07-31T04:31:16;100687.19;;;17.74;100.00
5883;BME280;2967;51.488;6.618;2023-07-31T04:36:18;100694.53;;;17.72;100.00
5883;BME280;2967;51.488;6.618;2023-07-31T04:41:21;100688.06;;;17.65;100.00
5883;BME280;2967;51.488;6.618;2023-07-31T04:46:25;100689.47;;;17.69;100.00
5883;BME280;2967;51.488;6.618;2023-07-31T04:51:28;100674.25;;;17.70;100.00
5883;BME280;2967;51.488;6.618;2023-07-31T04:56:31;100641.34;;;17.60;100.00
5883;BME280;2967;51.488;6.618;2023-07-31T05:01:35;100670.38;;;17.82;100.00
5883;BME280;2967;51.488;6.618;2023-07-31T05:06:38;100656.63;;;17.77;100.00
5883;BME280;2967;51.488;6.618;2023-07-31T05:11:41;100657.88;;;17.82;100.00
5883;BME280;2967;51.488;6.618;2023-07-31T05:16:45;100657.88;;;17.82;100.00
5883;BME280;2967;51.488;6.618;2023-07-31T05:21:48;100653.88;;;17.86;100.00
5883;BME280;2967;51.488;6.618;2023-07-31T05:26:51;100654.19;;;17.83;100.00
5883;BME280;2967;51.488;6.618;2023-07-31T05:31:55;100656.72;;;17.85;100.00
5883;BME280;2967;51.488;6.618;2023-07-31T05:36:58;100644.34;;;17.84;100.00
5883;BME280;2967;51.488;6.618;2023-07-31T05:42:03;100606.63;;;17.77;100.00
5883;BME280;2967;51.488;6.618;2023-07-31T05:47:07;100618.97;;;17.88;100.00
5883;BME280;2967;51.488;6.618;2023-07-31T05:52:10;100620.19;;;17.93;100.00
5883;BME280;2967;51.488;6.618;2023-07-31T05:57:13;100615.97;;;17.91;100.00
5883;BME280;2967;51.488;6.618;2023-07-31T06:02:17;100574.00;;;17.74;100.00
5883;BME280;2967;51.488;6.618;2023-07-31T06:07:20;100586.84;;;17.88;100.00
5883;BME280;2967;51.488;6.618;2023-07-31T06:12:23;100518.81;;;17.46;100.00
5883;BME280;2967;51.488;6.618;2023-07-31T06:17:27;100603.28;;;17.93;100.00
5883;BME280;2967;51.488;6.618;2023-07-31T06:22:31;100608.81;;;17.91;100.00
5883;BME280;2967;51.488;6.618;2023-07-31T06:27:34;100592.41;;;17.77;100.00
5883;BME280;2967;51.488;6.618;2023-07-31T06:32:38;100484.22;;;17.08;100.00
5883;BME280;2967;51.488;6.618;2023-07-31T06:37:44;100592.25;;;17.78;100.00
5883;BME280;2967;51.488;6.618;2023-07-31T06:42:47;100606.03;;;17.83;100.00
5883;BME280;2967;51.488;6.618;2023-07-31T06:47:51;100602.34;;;17.84;100.00
5883;BME280;2967;51.488;6.618;2023-07-31T06:52:55;100604.72;;;17.87;100.00
5883;BME280;2967;51.488;6.618;2023-07-31T06:58:00;100604.91;;;17.86;100.00
5883;BME280;2967;51.488;6.618;2023-07-31T07:03:05;100599.31;;;17.79;100.00
5883;BME280;2967;51.488;6.618;2023-07-31T07:08:08;100593.53;;;17.74;100.00
5883;BME280;2967;51.488;6.618;2023-07-31T07:13:10;100496.94;;;17.23;100.00
5883;BME280;2967;51.488;6.618;2023-07-31T07:18:15;100574.25;;;17.71;100.00
5883;BME280;2967;51.488;6.618;2023-07-31T07:23:18;100570.03;;;17.68;100.00
5883;BME280;2967;51.488;6.618;2023-07-31T07:28:21;100580.47;;;17.71;100.00
5883;BME280;2967;51.488;6.618;2023-07-31T07:33:25;100530.19;;;17.48;100.00
5883;BME280;2967;51.488;6.618;2023-07-31T07:38:29;100573.56;;;17.69;100.00
5883;BME280;2967;51.488;6.618;2023-07-31T07:43:32;100575.25;;;17.70;100.00
5883;BME280;2967;51.488;6.618;2023-07-31T07:48:36;100571.34;;;17.64;100.00
5883;BME280;2967;51.488;6.618;2023-07-31T07:53:39;100569.47;;;17.74;100.00
5883;BME280;2967;51.488;6.618;2023-07-31T07:58:42;100505.53;;;17.54;100.00
5883;BME280;2967;51.488;6.618;2023-07-31T08:03:47;100552.50;;;17.83;100.00
5883;BME280;2967;51.488;6.618;2023-07-31T08:08:50;100563.72;;;17.69;100.00
5883;BME280;2967;51.488;6.618;2023-07-31T08:13:52;100537.09;;;17.50;100.00
5883;BME280;2967;51.488;6.618;2023-07-31T08:18:57;100345.63;;;16.41;100.00
5883;BME280;2967;51.488;6.618;2023-07-31T08:23:59;100547.03;;;17.58;100.00
5883;BME280;2967;51.488;6.618;2023-07-31T08:29:02;100545.81;;;17.52;100.00
5883;BME280;2967;51.488;6.618;2023-07-31T08:34:06;100540.16;;;17.55;100.00
5883;BME280;2967;51.488;6.618;2023-07-31T08:39:09;100511.09;;;17.33;100.00
5883;BME280;2967;51.488;6.618;2023-07-31T08:44:14;100498.63;;;17.24;100.00
5883;BME280;2967;51.488;6.618;2023-07-31T08:49:22;100547.03;;;17.58;100.00
5883;BME280;2967;51.488;6.618;2023-07-31T08:54:25;100549.47;;;17.51;100.00
5883;BME280;2967;51.488;6.618;2023-07-31T08:59:49;100319.53;;;16.16;100.00
5883;BME280;2967;51.488;6.618;2023-07-31T09:04:59;100544.56;;;17.47;100.00
5883;BME280;2967;51.488;6.618;2023-07-31T09:10:04;100554.38;;;17.56;100.00
5883;BME280;2967;51.488;6.618;2023-07-31T09:15:09;100492.25;;;17.35;100.00
5883;BME280;2967;51.488;6.618;2023-07-31T09:20:32;100547.22;;;17.74;100.00
5883;BME280;2967;51.488;6.618;2023-07-31T09:25:37;100472.56;;;17.36;100.00
5883;BME280;2967;51.488;6.618;2023-07-31T09:31:06;100252.56;;;16.10;100.00
5883;BME280;2967;51.488;6.618;2023-07-31T09:36:41;100496.06;;;17.59;100.00
5883;BME280;2967;51.488;6.618;2023-07-31T09:41:46;100530.00;;;17.76;100.00
5883;BME280;2967;51.488;6.618;2023-07-31T09:46:49;100457.13;;;17.47;100.00
5883;BME280;2967;51.488;6.618;2023-07-31T09:51:54;100517.94;;;17.90;100.00
5883;BME280;2967;51.488;6.618;2023-07-31T09:57:02;100297.34;;;16.52;100.00
5883;BME280;2967;51.488;6.618;2023-07-31T10:08:10;100183.16;;;15.93;100.00
5883;BME280;2967;51.488;6.618;2023-07-31T10:13:15;100160.47;;;15.79;100.00
5883;BME280;2967;51.488;6.618;2023-07-31T10:18:20;100462.25;;;17.58;100.00
5883;BME280;2967;51.488;6.618;2023-07-31T10:23:25;100514.38;;;17.99;100.00
5883;BME280;2967;51.488;6.618;2023-07-31T10:28:41;100509.09;;;18.07;100.00
5883;BME280;2967;51.488;6.618;2023-07-31T10:33:45;100272.13;;;16.64;100.00
5883;BME280;2967;51.488;6.618;2023-07-31T10:38:56;100500.50;;;18.38;100.00
5883;BME280;2967;51.488;6.618;2023-07-31T10:44:07;100529.97;;;18.56;100.00
5883;BME280;2967;51.488;6.618;2023-07-31T10:49:20;100504.13;;;18.72;100.00
5883;BME280;2967;51.488;6.618;2023-07-31T10:54:27;100511.94;;;18.66;100.00
5883;BME280;2967;51.488;6.618;2023-07-31T10:59:34;100489.94;;;18.54;100.00
5883;BME280;2967;51.488;6.618;2023-07-31T11:04:41;100498.44;;;18.75;100.00
5883;BME280;2967;51.488;6.618;2023-07-31T11:09:47;100494.13;;;18.82;100.00
5883;BME280;2967;51.488;6.618;2023-07-31T11:14:54;100500.50;;;18.81;100.00
5883;BME280;2967;51.488;6.618;2023-07-31T11:20:06;100473.25;;;18.68;100.00
5883;BME280;2967;51.488;6.618;2023-07-31T11:25:11;100505.78;;;18.73;100.00
5883;BME280;2967;51.488;6.618;2023-07-31T11:30:14;100501.22;;;18.66;100.00
5883;BME280;2967;51.488;6.618;2023-07-31T11:35:16;100499.09;;;18.69;100.00
5883;BME280;2967;51.488;6.618;2023-07-31T11:40:21;100501.38;;;18.64;100.00
5883;BME280;2967;51.488;6.618;2023-07-31T11:45:30;100489.94;;;18.54;100.00
5883;BME280;2967;51.488;6.618;2023-07-31T11:50:39;100496.59;;;18.50;100.00
5883;BME280;2967;51.488;6.618;2023-07-31T11:55:43;100408.44;;;17.96;100.00
5883;BME280;2967;51.488;6.618;2023-07-31T12:00:47;100492.06;;;18.51;100.00
5883;BME280;2967;51.488;6.618;2023-07-31T12:05:52;100493.94;;;18.50;100.00
5883;BME280;2967;51.488;6.618;2023-07-31T12:11:18;100193.91;;;16.72;100.00
5883;BME280;2967;51.488;6.618;2023-07-31T12:16:30;100478.34;;;18.54;100.00
5883;BME280;2967;51.488;6.618;2023-07-31T12:21:37;100419.72;;;18.25;100.00
5883;BME280;2967;51.488;6.618;2023-07-31T12:26:57;100138.53;;;16.74;100.00
5883;BME280;2967;51.488;6.618;2023-07-31T12:32:00;100458.91;;;18.69;100.00
5883;BME280;2967;51.488;6.618;2023-07-31T12:37:14;100376.06;;;18.25;100.00
5883;BME280;2967;51.488;6.618;2023-07-31T12:42:30;100450.25;;;18.83;100.00
5883;BME280;2967;51.488;6.618;2023-07-31T12:47:33;100421.84;;;18.65;100.00
5883;BME280;2967;51.488;6.618;2023-07-31T12:52:36;100464.38;;;18.93;100.00
5883;BME280;2967;51.488;6.618;2023-07-31T12:57:56;100423.41;;;18.75;100.00
5883;BME280;2967;51.488;6.618;2023-07-31T13:02:58;100428.53;;;18.94;100.00
5883;BME280;2967;51.488;6.618;2023-07-31T13:08:02;100343.44;;;18.55;100.00
5883;BME280;2967;51.488;6.618;2023-07-31T13:13:12;100399.84;;;18.86;100.00
5883;BME280;2967;51.488;6.618;2023-07-31T13:18:15;100344.41;;;18.54;100.00
5883;BME280;2967;51.488;6.618;2023-07-31T13:23:18;100407.06;;;18.94;100.00
5883;BME280;2967;51.488;6.618;2023-07-31T13:28:22;100402.72;;;18.93;100.00
5883;BME280;2967;51.488;6.618;2023-07-31T13:33:25;100347.31;;;18.68;100.00
5883;BME280;2967;51.488;6.618;2023-07-31T13:38:41;100337.09;;;18.64;100.00
5883;BME280;2967;51.488;6.618;2023-07-31T13:43:48;100399.41;;;18.99;100.00
5883;BME280;2967;51.488;6.618;2023-07-31T13:48:51;100382.44;;;18.90;100.00
5883;BME280;2967;51.488;6.618;2023-07-31T13:53:57;100395.38;;;19.03;100.00
5883;BME280;2967;51.488;6.618;2023-07-31T13:59:01;100389.47;;;19.33;100.00
5883;BME280;2967;51.488;6.618;2023-07-31T14:04:05;100365.34;;;19.33;100.00
5883;BME280;2967;51.488;6.618;2023-07-31T14:09:08;100379.59;;;19.49;100.00
5883;BME280;2967;51.488;6.618;2023-07-31T14:14:16;100385.31;;;19.46;100.00
5883;BME280;2967;51.488;6.618;2023-07-31T14:19:25;100368.53;;;19.44;100.00
5883;BME280;2967;51.488;6.618;2023-07-31T14:24:31;100318.66;;;19.10;100.00
5883;BME280;2967;51.488;6.618;2023-07-31T14:29:37;100367.84;;;19.34;100.00
5883;BME280;2967;51.488;6.618;2023-07-31T14:34:46;100128.22;;;17.81;100.00
5883;BME280;2967;51.488;6.618;2023-07-31T14:39:50;100297.47;;;18.83;100.00
5883;BME280;2967;51.488;6.618;2023-07-31T14:44:54;100370.94;;;19.14;100.00
5883;BME280;2967;51.488;6.618;2023-07-31T14:49:57;100361.91;;;19.15;100.00
5883;BME280;2967;51.488;6.618;2023-07-31T14:55:00;100356.88;;;19.12;100.00
5883;BME280;2967;51.488;6.618;2023-07-31T15:00:06;100286.41;;;18.70;100.00
5883;BME280;2967;51.488;6.618;2023-07-31T15:05:10;100361.91;;;19.15;100.00
5883;BME280;2967;51.488;6.618;2023-07-31T15:10:13;100355.72;;;19.14;100.00
5883;BME280;2967;51.488;6.618;2023-07-31T15:15:17;100350.34;;;19.14;100.00
5883;BME280;2967;51.488;6.618;2023-07-31T15:20:23;100274.50;;;18.73;100.00
5883;BME280;2967;51.488;6.618;2023-07-31T15:25:25;100271.50;;;18.83;100.00
5883;BME280;2967;51.488;6.618;2023-07-31T15:30:31;100254.44;;;18.77;100.00
5883;BME280;2967;51.488;6.618;2023-07-31T15:35:36;100256.28;;;18.84;100.00
5883;BME280;2967;51.488;6.618;2023-07-31T15:40:39;100303.59;;;19.09;100.00
5883;BME280;2967;51.488;6.618;2023-07-31T15:45:44;100198.25;;;18.43;100.00
5883;BME280;2967;51.488;6.618;2023-07-31T15:50:47;100313.63;;;19.07;100.00
5883;BME280;2967;51.488;6.618;2023-07-31T15:55:49;100302.91;;;18.99;100.00
5883;BME280;2967;51.488;6.618;2023-07-31T16:00:54;100269.13;;;18.73;100.00
5883;BME280;2967;51.488;6.618;2023-07-31T16:05:59;100287.91;;;18.80;100.00
5883;BME280;2967;51.488;6.618;2023-07-31T16:11:02;100271.00;;;18.72;100.00
5883;BME280;2967;51.488;6.618;2023-07-31T16:16:07;100282.72;;;18.71;100.00
5883;BME280;2967;51.488;6.618;2023-07-31T16:21:14;100257.94;;;18.69;100.00
5883;BME280;2967;51.488;6.618;2023-07-31T16:26:17;100263.63;;;18.74;100.00
5883;BME280;2967;51.488;6.618;2023-07-31T16:31:21;100253.91;;;18.73;100.00
5883;BME280;2967;51.488;6.618;2023-07-31T16:36:27;100245.22;;;18.71;100.00
5883;BME280;2967;51.488;6.618;2023-07-31T16:41:31;100039.69;;;17.50;100.00
5883;BME280;2967;51.488;6.618;2023-07-31T16:46:35;100224.06;;;18.68;100.00
5883;BME280;2967;51.488;6.618;2023-07-31T16:51:47;100174.16;;;18.43;100.00
5883;BME280;2967;51.488;6.618;2023-07-31T16:56:50;100172.44;;;18.34;100.00
5883;BME280;2967;51.488;6.618;2023-07-31T17:02:04;100196.28;;;18.61;100.00
5883;BME280;2967;51.488;6.618;2023-07-31T17:07:07;100190.25;;;18.51;100.00
5883;BME280;2967;51.488;6.618;2023-07-31T17:12:09;100103.34;;;17.96;100.00
5883;BME280;2967;51.488;6.618;2023-07-31T17:17:32;100179.81;;;18.48;100.00
5883;BME280;2967;51.488;6.618;2023-07-31T17:22:54;100127.50;;;18.12;100.00
5883;BME280;2967;51.488;6.618;2023-07-31T17:28:04;100099.84;;;18.04;100.00
5883;BME280;2967;51.488;6.618;2023-07-31T17:33:12;100148.19;;;18.36;100.00
5883;BME280;2967;51.488;6.618;2023-07-31T17:38:18;99988.84;;;17.42;100.00
5883;BME280;2967;51.488;6.618;2023-07-31T17:43:27;99747.91;;;15.97;100.00
5883;BME280;2967;51.488;6.618;2023-07-31T17:48:41;100134.56;;;18.21;100.00
5883;BME280;2967;51.488;6.618;2023-07-31T17:53:45;100059.31;;;17.75;100.00
5883;BME280;2967;51.488;6.618;2023-07-31T17:58:54;100114.63;;;18.08;100.00
5883;BME280;2967;51.488;6.618;2023-07-31T18:04:00;100080.94;;;17.89;100.00
5883;BME280;2967;51.488;6.618;2023-07-31T18:09:08;100089.31;;;17.94;100.00
5883;BME280;2967;51.488;6.618;2023-07-31T18:14:12;100113.09;;;18.05;100.00
5883;BME280;2967;51.488;6.618;2023-07-31T18:19:43;100098.56;;;18.08;100.00
5883;BME280;2967;51.488;6.618;2023-07-31T18:31:49;99754.59;;;16.01;100.00
5883;BME280;2967;51.488;6.618;2023-07-31T18:55:14;99720.50;;;16.12;100.00
5883;BME280;2967;51.488;6.618;2023-07-31T19:00:17;100025.47;;;18.23;100.00
5883;BME280;2967;51.488;6.618;2023-07-31T19:05:20;100018.09;;;18.25;100.00
5883;BME280;2967;51.488;6.618;2023-07-31T19:10:24;99980.28;;;18.04;100.00
5883;BME280;2967;51.488;6.618;2023-07-31T19:15:27;99953.53;;;18.12;100.00
5883;BME280;2967;51.488;6.618;2023-07-31T19:20:32;99949.16;;;17.95;100.00
5883;BME280;2967;51.488;6.618;2023-07-31T19:25:41;99981.94;;;18.05;100.00
5883;BME280;2967;51.488;6.618;2023-07-31T19:30:45;99979.59;;;18.02;100.00
5883;BME280;2967;51.488;6.618;2023-07-31T19:35:53;99996.84;;;18.08;100.00
5883;BME280;2967;51.488;6.618;2023-07-31T19:40:59;99991.81;;;18.05;100.00
5883;BME280;2967;51.488;6.618;2023-07-31T19:46:03;99927.03;;;17.61;100.00
5883;BME280;2967;51.488;6.618;2023-07-31T19:51:05;99978.94;;;18.00;100.00
5883;BME280;2967;51.488;6.618;2023-07-31T19:56:09;99987.28;;;18.05;100.00
5883;BME280;2967;51.488;6.618;2023-07-31T20:01:12;99991.63;;;18.06;100.00
5883;BME280;2967;51.488;6.618;2023-07-31T20:06:15;99993.00;;;18.10;100.00
5883;BME280;2967;51.488;6.618;2023-07-31T20:11:19;99987.97;;;18.07;100.00
5883;BME280;2967;51.488;6.618;2023-07-31T20:16:22;99970.41;;;17.97;100.00
5883;BME280;2967;51.488;6.618;2023-07-31T20:21:25;99978.94;;;18.08;100.00
5883;BME280;2967;51.488;6.618;2023-07-31T20:26:29;99946.63;;;17.94;100.00
5883;BME280;2967;51.488;6.618;2023-07-31T20:31:31;99957.84;;;18.05;100.00
5883;BME280;2967;51.488;6.618;2023-07-31T20:36:34;99962.38;;;18.13;100.00
5883;BME280;2967;51.488;6.618;2023-07-31T20:41:39;99968.56;;;18.13;100.00
5883;BME280;2967;51.488;6.618;2023-07-31T20:46:41;99935.28;;;18.16;100.00
5883;BME280;2967;51.488;6.618;2023-07-31T20:51:44;99920.53;;;18.12;100.00
5883;BME280;2967;51.488;6.618;2023-07-31T20:56:50;99919.03;;;18.17;100.00
5883;BME280;2967;51.488;6.618;2023-07-31T21:01:54;99907.66;;;18.15;100.00
5883;BME280;2967;51.488;6.618;2023-07-31T21:06:57;99823.22;;;17.73;100.00
5883;BME280;2967;51.488;6.618;2023-07-31T21:12:01;99884.59;;;18.14;100.00
5883;BME280;2967;51.488;6.618;2023-07-31T21:17:04;99879.91;;;18.16;100.00
5883;BME280;2967;51.488;6.618;2023-07-31T21:22:07;99842.63;;;17.99;100.00
5883;BME280;2967;51.488;6.618;2023-07-31T21:27:11;99874.22;;;18.11;100.00
5883;BME280;2967;51.488;6.618;2023-07-31T21:32:13;99903.66;;;18.11;100.00
5883;BME280;2967;51.488;6.618;2023-07-31T21:37:16;99877.91;;;18.02;100.00
5883;BME280;2967;51.488;6.618;2023-07-31T21:42:20;99879.56;;;18.03;100.00
5883;BME280;2967;51.488;6.618;2023-07-31T21:47:23;99865.03;;;17.98;100.00
5883;BME280;2967;51.488;6.618;2023-07-31T21:52:26;99852.66;;;17.97;100.00
5883;BME280;2967;51.488;6.618;2023-07-31T21:57:30;99825.75;;;17.90;100.00
5883;BME280;2967;51.488;6.618;2023-07-31T22:02:32;99832.41;;;17.94;100.00
5883;BME280;2967;51.488;6.618;2023-07-31T22:07:36;99812.38;;;17.90;100.00
5883;BME280;2967;51.488;6.618;2023-07-31T22:12:40;99808.03;;;17.89;100.00
5883;BME280;2967;51.488;6.618;2023-07-31T22:17:43;99801.66;;;17.82;100.00
5883;BME280;2967;51.488;6.618;2023-07-31T22:22:46;99789.31;;;17.81;100.00
5883;BME280;2967;51.488;6.618;2023-07-31T22:27:50;99795.97;;;17.77;100.00
5883;BME280;2967;51.488;6.618;2023-07-31T22:32:54;99776.09;;;17.72;100.00
5883;BME280;2967;51.488;6.618;2023-07-31T22:37:57;99751.50;;;17.68;100.00
5883;BME280;2967;51.488;6.618;2023-07-31T22:43:01;99748.69;;;17.70;100.00
5883;BME280;2967;51.488;6.618;2023-07-31T22:48:04;99745.84;;;17.71;100.00
5883;BME280;2967;51.488;6.618;2023-07-31T22:53:07;99742.50;;;17.69;100.00
5883;BME280;2967;51.488;6.618;2023-07-31T22:58:11;99726.78;;;17.66;100.00
5883;BME280;2967;51.488;6.618;2023-07-31T23:03:13;99721.44;;;17.66;100.00
5883;BME280;2967;51.488;6.618;2023-07-31T23:08:16;99712.41;;;17.67;100.00
5883;BME280;2967;51.488;6.618;2023-07-31T23:13:20;99695.38;;;17.60;100.00
5883;BME280;2967;51.488;6.618;2023-07-31T23:18:24;99716.44;;;17.63;100.00
5883;BME280;2967;51.488;6.618;2023-07-31T23:23:26;99701.88;;;17.66;100.00
5883;BME280;2967;51.488;6.618;2023-07-31T23:28:30;99692.03;;;17.58;100.00
5883;BME280;2967;51.488;6.618;2023-07-31T23:33:33;99681.81;;;17.62;100.00
5883;BME280;2967;51.488;6.618;2023-07-31T23:38:36;99656.09;;;17.61;100.00
5883;BME280;2967;51.488;6.618;2023-07-31T23:43:40;99663.59;;;17.65;100.00
5883;BME280;2967;51.488;6.618;2023-07-31T23:48:47;99647.56;;;17.57;100.00
5883;BME280;2967;51.488;6.618;2023-07-31T23:53:50;99656.44;;;17.66;100.00
5883;BME280;2967;51.488;6.618;2023-07-31T23:58:54;99655.75;;;17.64;100.00
